createdAt,value
2023-06-28T00:04:55.907Z,7.57
2023-06-28T00:09:59.473Z,6.97
2023-06-28T00:15:02.303Z,4.50
2023-06-28T00:20:09.423Z,4.90
2023-06-28T00:25:11.962Z,5.70
2023-06-28T00:30:15.120Z,5.73
2023-06-28T00:35:17.719Z,4.50
2023-06-28T00:40:21.776Z,4.10
2023-06-28T00:45:24.371Z,5.03
2023-06-28T00:50:28.719Z,4.90
2023-06-28T00:55:33.805Z,7.33
2023-06-28T01:00:36.273Z,8.10
2023-06-28T01:05:38.989Z,7.53
2023-06-28T01:10:43.177Z,7.60
2023-06-28T01:15:45.848Z,7.00
2023-06-28T01:20:50.958Z,7.47
2023-06-28T01:25:56.199Z,7.57
2023-06-28T01:31:01.038Z,6.07
2023-06-28T01:36:03.650Z,7.00
2023-06-28T01:41:08.185Z,5.97
2023-06-28T01:46:11.782Z,5.07
2023-06-28T01:51:14.442Z,5.57
2023-06-28T01:56:17.893Z,5.20
2023-06-28T02:01:20.615Z,4.87
2023-06-28T02:06:23.215Z,11.83
2023-06-28T02:11:25.899Z,6.00
2023-06-28T02:16:28.901Z,5.83
2023-06-28T02:21:31.889Z,4.93
2023-06-28T02:26:35.837Z,5.23
2023-06-28T02:31:38.320Z,4.67
2023-06-28T02:36:40.858Z,5.33
2023-06-28T02:41:43.289Z,4.90
2023-06-28T02:46:45.830Z,5.13
2023-06-28T02:51:48.481Z,6.43
2023-06-28T02:56:52.163Z,5.10
2023-06-28T03:01:57.546Z,4.93
2023-06-28T03:07:00.493Z,4.37
2023-06-28T03:12:03.700Z,4.33
2023-06-28T03:17:06.832Z,4.00
2023-06-28T03:22:10.839Z,4.00
2023-06-28T03:27:13.302Z,4.13
2023-06-28T03:32:17.587Z,3.87
2023-06-28T03:37:20.097Z,3.73
2023-06-28T03:42:25.158Z,3.57
2023-06-28T03:47:27.682Z,3.83
2023-06-28T03:52:30.291Z,3.37
2023-06-28T03:57:32.761Z,3.80
2023-06-28T04:02:35.348Z,3.30
2023-06-28T04:07:38.018Z,3.60
2023-06-28T04:12:41.142Z,3.70
2023-06-28T04:17:43.645Z,3.23
2023-06-28T04:22:46.713Z,2.90
2023-06-28T04:27:49.169Z,2.90
2023-06-28T04:32:51.769Z,3.00
2023-06-28T04:37:54.586Z,3.10
2023-06-28T04:42:57.124Z,3.60
2023-06-28T04:47:59.608Z,3.70
2023-06-28T04:53:05.232Z,6.20
2023-06-28T04:58:07.637Z,6.17
2023-06-28T05:03:12.075Z,4.17
2023-06-28T05:08:15.011Z,3.70
2023-06-28T05:13:17.525Z,3.87
2023-06-28T05:18:20.280Z,3.80
2023-06-28T05:23:23.055Z,3.30
2023-06-28T05:28:27.165Z,2.90
2023-06-28T05:33:29.670Z,3.20
2023-06-28T05:38:32.151Z,2.97
2023-06-28T05:43:34.533Z,3.40
2023-06-28T05:48:37.438Z,2.80
2023-06-28T05:53:40.929Z,3.13
2023-06-28T05:58:43.331Z,3.60
2023-06-28T06:03:46.003Z,3.40
2023-06-28T06:08:48.542Z,3.00
2023-06-28T06:13:51.085Z,2.90
2023-06-28T06:18:53.547Z,2.47
2023-06-28T06:23:56.346Z,3.00
2023-06-28T06:28:58.818Z,2.90
2023-06-28T06:34:02.469Z,3.10
2023-06-28T06:39:05.048Z,3.10
2023-06-28T06:44:07.674Z,3.43
2023-06-28T06:49:10.193Z,3.90
2023-06-28T06:54:12.699Z,3.00
2023-06-28T06:59:17.684Z,3.43
2023-06-28T07:04:22.692Z,3.53
2023-06-28T07:09:27.446Z,3.47
2023-06-28T07:14:29.891Z,3.70
2023-06-28T07:19:32.294Z,4.00
2023-06-28T07:24:35.268Z,3.67
2023-06-28T07:29:37.726Z,4.83
2023-06-28T07:34:40.182Z,4.53
2023-06-28T07:39:42.625Z,4.70
2023-06-28T07:44:45.359Z,4.53
2023-06-28T07:49:47.856Z,4.07
2023-06-28T07:54:50.306Z,3.77
2023-06-28T07:59:52.802Z,4.30
2023-06-28T08:04:55.188Z,4.87
2023-06-28T08:09:57.632Z,5.00
2023-06-28T08:15:00.092Z,8.30
2023-06-28T08:20:02.673Z,5.10
2023-06-28T08:25:05.613Z,4.80
2023-06-28T08:30:08.646Z,5.67
2023-06-28T08:35:12.108Z,4.50
2023-06-28T08:40:14.679Z,5.13
2023-06-28T08:45:17.993Z,4.70
2023-06-28T08:50:20.836Z,5.17
2023-06-28T08:55:24.023Z,5.07
2023-06-28T09:00:26.550Z,5.07
2023-06-28T09:05:29.498Z,8.20
2023-06-28T09:10:32.255Z,5.50
2023-06-28T09:15:36.445Z,5.23
2023-06-28T09:20:47.939Z,5.20
2023-06-28T09:25:51.631Z,5.73
2023-06-28T09:30:55.247Z,6.97
2023-06-28T09:35:58.602Z,6.00
2023-06-28T09:41:02.231Z,6.43
2023-06-28T09:46:18.450Z,6.47
2023-06-28T09:51:21.029Z,6.63
2023-06-28T09:56:35.673Z,7.23
2023-06-28T10:01:41.781Z,7.80
2023-06-28T10:06:46.076Z,7.90
2023-06-28T10:11:49.742Z,7.73
2023-06-28T10:16:54.269Z,8.03
2023-06-28T10:21:57.724Z,6.97
2023-06-28T10:27:05.009Z,8.27
2023-06-28T10:32:08.856Z,7.37
2023-06-28T10:37:11.350Z,8.40
2023-06-28T10:42:13.810Z,8.50
2023-06-28T10:47:17.557Z,8.40
2023-06-28T10:52:20.085Z,8.17
2023-06-28T10:57:36.403Z,8.77
2023-06-28T11:03:02.079Z,8.80
2023-06-28T11:08:12.496Z,8.00
2023-06-28T11:13:30.748Z,7.30
2023-06-28T11:18:33.559Z,8.87
2023-06-28T11:23:38.713Z,7.73
2023-06-28T11:28:55.708Z,7.67
2023-06-28T11:33:59.172Z,8.60
2023-06-28T11:39:02.555Z,8.33
2023-06-28T11:44:06.451Z,7.67
2023-06-28T11:49:09.661Z,7.47
2023-06-28T11:54:13.388Z,8.10
2023-06-28T11:59:20.249Z,8.43
2023-06-28T12:04:24.302Z,7.87
2023-06-28T12:09:32.396Z,8.20
2023-06-28T12:14:50.064Z,8.03
2023-06-28T12:19:55.872Z,9.33
2023-06-28T12:25:02.134Z,8.90
2023-06-28T12:30:15.869Z,8.93
2023-06-28T12:35:28.695Z,8.57
2023-06-28T12:40:36.514Z,8.20
2023-06-28T12:45:53.243Z,9.00
2023-06-28T12:50:56.836Z,8.47
2023-06-28T12:55:59.409Z,8.90
2023-06-28T13:01:01.912Z,8.70
2023-06-28T13:06:04.505Z,9.20
2023-06-28T13:11:06.984Z,9.67
2023-06-28T13:16:09.575Z,7.17
2023-06-28T13:21:12.106Z,8.50
2023-06-28T13:26:14.870Z,8.87
2023-06-28T13:31:17.585Z,8.63
2023-06-28T13:36:25.132Z,9.30
2023-06-28T13:41:27.677Z,8.20
2023-06-28T13:46:30.269Z,8.10
2023-06-28T13:51:33.502Z,8.17
2023-06-28T13:56:36.193Z,7.37
2023-06-28T14:01:38.604Z,8.40
2023-06-28T14:06:41.098Z,7.83
2023-06-28T14:11:43.591Z,7.83
2023-06-28T14:16:46.058Z,7.17
2023-06-28T14:21:48.501Z,7.83
2023-06-28T14:26:53.631Z,8.53
2023-06-28T14:31:56.133Z,7.07
2023-06-28T14:36:58.680Z,10.73
2023-06-28T14:42:01.104Z,15.97
2023-06-28T14:47:04.807Z,15.83
2023-06-28T14:52:07.568Z,15.57
2023-06-28T14:57:11.622Z,8.70
2023-06-28T15:02:14.160Z,8.73
2023-06-28T15:07:16.749Z,8.57
2023-06-28T15:12:19.251Z,8.33
2023-06-28T15:17:21.789Z,8.13
2023-06-28T15:22:24.396Z,10.00
2023-06-28T15:27:27.005Z,8.20
2023-06-28T15:32:29.758Z,8.60
2023-06-28T15:37:33.218Z,10.47
2023-06-28T15:42:35.767Z,8.40
2023-06-28T15:47:38.499Z,10.37
2023-06-28T15:52:41.015Z,10.90
2023-06-28T15:57:43.423Z,8.63
2023-06-28T16:02:46.462Z,11.70
2023-06-28T16:07:53.101Z,26.30
2023-06-28T16:12:55.617Z,11.40
2023-06-28T16:17:58.071Z,20.13
2023-06-28T16:23:00.585Z,18.70
2023-06-28T16:28:03.116Z,15.97
2023-06-28T16:33:09.763Z,14.20
2023-06-28T16:38:12.286Z,8.40
2023-06-28T16:48:17.648Z,9.07
2023-06-28T16:53:20.140Z,8.57
2023-06-28T16:58:22.664Z,8.40
2023-06-28T17:03:25.430Z,7.87
2023-06-28T17:08:28.116Z,7.90
2023-06-28T17:13:31.456Z,6.93
2023-06-28T17:18:33.885Z,7.70
2023-06-28T17:23:36.333Z,8.07
2023-06-28T17:28:41.055Z,7.90
2023-06-28T17:33:43.612Z,9.03
2023-06-28T17:38:46.240Z,8.23
2023-06-28T17:43:48.671Z,8.53
2023-06-28T17:48:51.186Z,35.23
2023-06-28T17:53:53.685Z,20.07
2023-06-28T17:58:56.172Z,12.23
2023-06-28T18:03:59.373Z,8.00
2023-06-28T18:09:01.930Z,7.40
2023-06-28T18:14:04.420Z,7.77
2023-06-28T18:19:07.997Z,8.20
2023-06-28T18:24:10.454Z,8.20
2023-06-28T18:29:13.057Z,8.50
2023-06-28T18:34:15.748Z,9.27
2023-06-28T18:39:21.263Z,10.73
2023-06-28T18:44:23.881Z,10.67
2023-06-28T18:49:26.419Z,12.93
2023-06-28T18:54:29.697Z,10.00
2023-06-28T18:59:32.356Z,9.90
2023-06-28T19:04:34.770Z,9.60
2023-06-28T19:09:37.266Z,8.87
2023-06-28T19:14:42.779Z,7.70
2023-06-28T19:19:45.209Z,8.10
2023-06-28T19:24:48.751Z,7.20
2023-06-28T19:29:51.239Z,7.60
2023-06-28T19:34:54.117Z,8.47
2023-06-28T19:39:56.634Z,8.60
2023-06-28T19:44:59.386Z,9.67
2023-06-28T19:50:02.028Z,11.23
2023-06-28T19:55:05.707Z,9.13
2023-06-28T20:00:10.199Z,9.00
2023-06-28T20:05:20.870Z,11.90
2023-06-28T20:10:26.182Z,8.83
2023-06-28T20:15:28.701Z,10.43
2023-06-28T20:20:31.166Z,8.80
2023-06-28T20:25:33.586Z,10.50
2023-06-28T20:30:36.038Z,10.60
2023-06-28T20:35:38.970Z,9.57
2023-06-28T20:40:41.375Z,8.93
2023-06-28T20:45:47.783Z,8.90
2023-06-28T20:50:50.548Z,10.10
2023-06-28T20:55:53.232Z,10.50
2023-06-28T21:00:55.945Z,9.00
2023-06-28T21:05:58.721Z,9.80
2023-06-28T21:11:01.272Z,9.97
2023-06-28T21:16:03.865Z,8.90
2023-06-28T21:21:06.768Z,9.27
2023-06-28T21:26:09.287Z,7.93
2023-06-28T21:31:11.727Z,8.90
2023-06-28T21:36:14.432Z,9.20
2023-06-28T21:41:16.916Z,7.93
2023-06-28T21:46:19.333Z,9.67
2023-06-28T21:51:21.928Z,8.57
2023-06-28T21:56:24.512Z,7.50
2023-06-28T22:01:27.710Z,8.60
2023-06-28T22:06:32.843Z,8.73
2023-06-28T22:11:35.263Z,7.67
2023-06-28T22:16:42.637Z,7.13
2023-06-28T22:21:45.692Z,6.93
2023-06-28T22:26:48.175Z,7.40
2023-06-28T22:31:50.727Z,6.57
2023-06-28T22:36:53.475Z,7.60
2023-06-28T22:41:55.958Z,7.53
2023-06-28T22:46:58.402Z,7.30
2023-06-28T22:52:00.929Z,7.23
2023-06-28T22:57:03.597Z,7.13
2023-06-28T23:02:06.089Z,7.53
2023-06-28T23:07:12.664Z,7.93
2023-06-28T23:12:16.495Z,9.73
2023-06-28T23:17:19.566Z,12.00
2023-06-28T23:22:22.025Z,11.77
2023-06-28T23:27:24.515Z,10.13
2023-06-28T23:32:30.417Z,13.70
2023-06-28T23:37:33.136Z,10.37
2023-06-28T23:42:38.082Z,13.97
2023-06-28T23:47:44.371Z,13.00
2023-06-28T23:52:47.436Z,12.80
2023-06-28T23:57:50.261Z,17.97
